createdAt,value
2023-02-25T00:02:15.295Z,38.03
2023-02-25T00:04:43.587Z,35.30
2023-02-25T00:07:13.218Z,36.42
2023-02-25T00:09:41.474Z,33.47
2023-02-25T00:12:10.291Z,36.40
2023-02-25T00:14:38.469Z,50.00
2023-02-25T00:17:06.704Z,40.25
2023-02-25T00:19:35.026Z,36.13
2023-02-25T00:22:03.748Z,37.90
2023-02-25T00:24:33.378Z,31.50
2023-02-25T00:27:01.578Z,33.63
2023-02-25T00:29:29.985Z,29.42
2023-02-25T00:31:58.446Z,33.50
2023-02-25T00:34:28.662Z,32.72
2023-02-25T00:36:58.125Z,36.33
2023-02-25T00:39:42.373Z,29.70
2023-02-25T00:42:13.363Z,32.17
2023-02-25T00:44:45.060Z,40.45
2023-02-25T00:47:14.056Z,34.38
2023-02-25T00:49:43.020Z,37.85
2023-02-25T00:52:11.406Z,39.33
2023-02-25T00:54:40.566Z,31.63
2023-02-25T00:57:08.861Z,32.70
2023-02-25T00:59:38.669Z,30.00
2023-02-25T01:02:06.969Z,33.63
2023-02-25T01:04:35.375Z,36.15
2023-02-25T01:07:03.989Z,31.88
2023-02-25T01:09:33.945Z,36.72
2023-02-25T01:12:02.188Z,37.78
2023-02-25T01:14:30.531Z,34.67
2023-02-25T01:17:02.191Z,37.63
2023-02-25T01:19:30.922Z,30.35
2023-02-25T01:22:00.507Z,31.25
2023-02-25T01:24:30.732Z,33.00
2023-02-25T01:27:01.005Z,31.20
2023-02-25T01:29:31.590Z,35.72
2023-02-25T01:32:03.623Z,31.70
2023-02-25T01:34:32.166Z,29.65
2023-02-25T01:37:04.369Z,33.33
2023-02-25T01:39:33.507Z,32.47
2023-02-25T01:42:05.605Z,29.13
2023-02-25T01:44:35.892Z,34.55
2023-02-25T01:47:07.276Z,30.05
2023-02-25T01:49:41.992Z,36.83
2023-02-25T01:52:14.467Z,39.00
2023-02-25T01:54:45.216Z,30.60
2023-02-25T01:57:16.524Z,37.30
2023-02-25T01:59:45.809Z,28.83
2023-02-25T02:02:19.497Z,29.95
2023-02-25T02:04:50.304Z,29.90
2023-02-25T02:07:24.674Z,33.75
2023-02-25T02:09:57.127Z,26.17
2023-02-25T02:12:26.837Z,26.30
2023-02-25T02:14:57.090Z,28.38
2023-02-25T02:17:30.769Z,25.40
2023-02-25T02:20:13.405Z,22.38
2023-02-25T02:22:53.197Z,24.20
2023-02-25T02:25:55.198Z,22.25
2023-02-25T02:29:14.000Z,22.15
2023-02-25T02:32:06.511Z,25.15
2023-02-25T02:34:48.159Z,25.60
2023-02-25T02:37:32.347Z,26.25
2023-02-25T02:40:15.812Z,21.05
2023-02-25T02:42:48.882Z,21.67
2023-02-25T02:45:22.930Z,20.10
2023-02-25T02:47:58.055Z,22.40
2023-02-25T02:50:33.937Z,21.48
2023-02-25T02:53:07.841Z,25.13
2023-02-25T02:55:41.391Z,21.73
2023-02-25T02:58:16.319Z,25.50
2023-02-25T03:00:48.618Z,20.90
2023-02-25T03:03:21.843Z,22.45
2023-02-25T03:05:53.960Z,20.55
2023-02-25T03:08:26.578Z,22.60
2023-02-25T03:10:55.228Z,20.98
2023-02-25T03:13:23.712Z,21.30
2023-02-25T03:15:53.887Z,23.23
2023-02-25T03:18:26.753Z,26.15
2023-02-25T03:20:59.952Z,22.38
2023-02-25T03:23:32.305Z,24.30
2023-02-25T03:26:13.077Z,23.63
2023-02-25T03:28:45.303Z,23.63
2023-02-25T03:31:21.701Z,20.98
2023-02-25T03:33:55.970Z,24.80
2023-02-25T03:36:29.440Z,25.75
2023-02-25T03:39:01.774Z,21.13
2023-02-25T03:41:35.711Z,26.90
2023-02-25T03:44:08.159Z,26.70
2023-02-25T03:46:37.216Z,23.50
2023-02-25T03:49:11.706Z,23.17
2023-02-25T03:51:42.717Z,24.95
2023-02-25T03:54:11.037Z,31.15
2023-02-25T03:56:44.564Z,28.92
2023-02-25T03:59:12.795Z,31.45
2023-02-25T04:01:43.516Z,27.88
2023-02-25T04:04:13.481Z,28.73
2023-02-25T04:06:42.064Z,37.42
2023-02-25T04:09:10.292Z,28.40
2023-02-25T04:11:38.605Z,31.48
2023-02-25T04:14:07.376Z,30.83
2023-02-25T04:16:35.819Z,32.15
2023-02-25T04:19:04.523Z,27.02
2023-02-25T04:21:37.448Z,32.78
2023-02-25T04:24:07.170Z,32.83
2023-02-25T04:26:35.739Z,33.90
2023-02-25T04:29:05.105Z,32.33
2023-02-25T04:31:33.584Z,32.28
2023-02-25T04:34:01.927Z,30.58
2023-02-25T04:36:32.234Z,33.75
2023-02-25T04:39:03.621Z,32.45
2023-02-25T04:41:34.514Z,34.40
2023-02-25T04:44:04.219Z,31.60
2023-02-25T04:46:33.061Z,27.70
2023-02-25T04:49:01.701Z,33.20
2023-02-25T04:51:30.089Z,34.88
2023-02-25T04:53:58.349Z,39.15
2023-02-25T04:56:28.422Z,28.75
2023-02-25T04:58:58.280Z,28.27
2023-02-25T05:01:26.701Z,27.63
2023-02-25T05:03:57.051Z,33.20
2023-02-25T05:06:26.390Z,36.67
2023-02-25T05:08:54.731Z,36.28
2023-02-25T05:11:23.145Z,32.72
2023-02-25T05:13:53.224Z,33.03
2023-02-25T05:16:22.545Z,30.52
2023-02-25T05:18:51.072Z,40.22
2023-02-25T05:21:21.246Z,36.35
2023-02-25T05:23:51.159Z,39.35
2023-02-25T05:26:22.796Z,35.58
2023-02-25T05:28:53.142Z,40.25
2023-02-25T05:31:23.124Z,40.65
2023-02-25T05:33:52.019Z,35.20
2023-02-25T05:36:20.590Z,40.13
2023-02-25T05:38:49.107Z,36.35
2023-02-25T05:41:17.373Z,35.45
2023-02-25T05:43:46.091Z,32.08
2023-02-25T05:46:16.148Z,43.53
2023-02-25T05:48:46.754Z,44.22
2023-02-25T05:51:17.265Z,38.35
2023-02-25T05:53:45.880Z,43.00
2023-02-25T05:56:17.012Z,41.10
2023-02-25T05:58:46.838Z,32.63
2023-02-25T06:01:18.730Z,31.17
2023-02-25T06:03:49.109Z,42.90
2023-02-25T06:06:23.328Z,40.85
2023-02-25T06:08:52.310Z,40.95
2023-02-25T06:11:23.401Z,37.67
2023-02-25T06:13:52.194Z,38.00
2023-02-25T06:16:22.841Z,38.72
2023-02-25T06:18:51.587Z,39.75
2023-02-25T06:21:20.112Z,41.72
2023-02-25T06:23:50.403Z,38.03
2023-02-25T06:26:19.299Z,36.63
2023-02-25T06:28:47.718Z,41.20
2023-02-25T06:31:18.099Z,33.58
2023-02-25T06:33:47.902Z,40.63
2023-02-25T06:36:16.201Z,40.42
2023-02-25T06:38:46.120Z,30.90
2023-02-25T06:41:16.710Z,38.42
2023-02-25T06:43:45.800Z,31.65
2023-02-25T06:46:15.801Z,42.75
2023-02-25T06:48:44.068Z,30.27
2023-02-25T06:51:14.248Z,34.30
2023-02-25T06:53:44.269Z,30.60
2023-02-25T06:56:14.760Z,34.65
2023-02-25T06:58:43.287Z,29.05
2023-02-25T07:01:13.740Z,32.88
2023-02-25T07:03:43.504Z,33.78
2023-02-25T07:06:14.105Z,29.80
2023-02-25T07:08:42.391Z,30.08
2023-02-25T07:11:29.295Z,27.40
2023-02-25T07:13:58.135Z,27.05
2023-02-25T07:16:26.789Z,26.90
2023-02-25T07:18:55.068Z,26.80
2023-02-25T07:21:29.344Z,26.98
2023-02-25T07:23:57.960Z,30.45
2023-02-25T07:26:28.400Z,29.50
2023-02-25T07:28:58.100Z,34.22
2023-02-25T07:31:28.365Z,31.90
2023-02-25T07:33:57.126Z,28.27
2023-02-25T07:36:28.607Z,30.20
2023-02-25T07:38:56.881Z,24.27
2023-02-25T07:41:25.229Z,25.95
2023-02-25T07:43:53.740Z,25.40
2023-02-25T07:46:22.281Z,27.80
2023-02-25T07:48:50.532Z,25.45
2023-02-25T07:51:20.738Z,25.73
2023-02-25T07:53:51.858Z,22.75
2023-02-25T07:56:22.197Z,29.38
2023-02-25T07:58:50.645Z,21.27
2023-02-25T08:01:23.722Z,33.38
2023-02-25T08:03:52.573Z,22.00
2023-02-25T08:06:21.397Z,20.63
2023-02-25T08:08:52.123Z,32.65
2023-02-25T08:11:22.793Z,25.20
2023-02-25T08:13:51.563Z,20.15
2023-02-25T08:16:22.112Z,26.33
2023-02-25T08:18:53.013Z,30.88
2023-02-25T08:21:23.705Z,53.15
2023-02-25T08:23:54.927Z,48.17
2023-02-25T08:26:24.590Z,54.40
2023-02-25T08:28:53.086Z,48.13
2023-02-25T08:31:21.756Z,35.85
2023-02-25T08:33:52.940Z,25.08
2023-02-25T08:36:23.810Z,27.83
2023-02-25T08:38:54.026Z,26.97
2023-02-25T08:41:23.908Z,39.97
2023-02-25T08:43:54.609Z,34.93
2023-02-25T08:46:24.192Z,29.43
2023-02-25T08:48:54.139Z,27.90
2023-02-25T08:51:23.953Z,25.90
2023-02-25T08:53:54.027Z,29.13
2023-02-25T08:56:22.287Z,34.03
2023-02-25T08:58:50.556Z,27.23
2023-02-25T09:01:19.255Z,20.27
2023-02-25T09:03:52.423Z,23.20
2023-02-25T09:06:22.206Z,25.07
2023-02-25T09:08:50.679Z,23.73
2023-02-25T09:11:21.087Z,31.60
2023-02-25T09:13:49.848Z,29.58
2023-02-25T09:16:19.166Z,29.70
2023-02-25T09:18:48.817Z,26.55
2023-02-25T09:21:17.423Z,22.10
2023-02-25T09:23:46.895Z,26.73
2023-02-25T09:26:15.631Z,28.05
2023-02-25T09:28:45.937Z,27.25
2023-02-25T09:31:14.618Z,30.75
2023-02-25T09:33:43.101Z,32.40
2023-02-25T09:36:13.658Z,30.55
2023-02-25T09:38:43.654Z,27.40
2023-02-25T09:41:26.615Z,23.85
2023-02-25T09:44:05.922Z,23.33
2023-02-25T09:46:38.485Z,22.15
2023-02-25T09:49:12.022Z,24.55
2023-02-25T09:51:44.755Z,19.75
2023-02-25T09:54:21.619Z,19.52
2023-02-25T09:56:51.246Z,25.67
2023-02-25T09:59:22.363Z,28.77
2023-02-25T10:01:55.358Z,23.63
2023-02-25T10:04:31.189Z,24.17
2023-02-25T10:07:06.062Z,27.10
2023-02-25T10:09:45.303Z,31.58
2023-02-25T10:12:23.757Z,25.83
2023-02-25T10:15:13.223Z,29.55
2023-02-25T10:17:53.476Z,25.98
2023-02-25T10:20:40.263Z,24.30
2023-02-25T10:23:18.903Z,28.75
2023-02-25T10:25:57.210Z,29.48
2023-02-25T10:28:25.957Z,22.80
2023-02-25T10:31:00.837Z,28.08
2023-02-25T10:33:34.676Z,28.92
2023-02-25T10:36:10.349Z,20.60
2023-02-25T10:38:43.333Z,26.77
2023-02-25T10:41:11.563Z,25.08
2023-02-25T10:43:39.834Z,26.48
2023-02-25T10:46:15.667Z,22.35
2023-02-25T10:48:48.733Z,24.90
2023-02-25T10:51:17.647Z,21.42
2023-02-25T10:54:05.098Z,32.75
2023-02-25T10:56:39.928Z,25.38
2023-02-25T10:59:23.797Z,22.67
2023-02-25T11:01:54.397Z,23.38
2023-02-25T11:04:26.210Z,24.70
2023-02-25T11:06:54.528Z,35.22
2023-02-25T11:09:31.802Z,18.13
2023-02-25T11:12:02.200Z,32.53
2023-02-25T11:14:32.192Z,25.10
2023-02-25T11:17:08.566Z,18.50
2023-02-25T11:19:40.079Z,24.02
2023-02-25T11:22:11.574Z,18.52
2023-02-25T11:24:42.899Z,21.23
2023-02-25T11:27:26.881Z,18.52
2023-02-25T11:30:01.517Z,22.27
2023-02-25T11:32:32.336Z,20.70
2023-02-25T11:35:07.920Z,18.57
2023-02-25T11:37:39.793Z,22.73
2023-02-25T11:40:25.671Z,19.87
2023-02-25T11:43:17.227Z,18.87
2023-02-25T11:45:53.978Z,16.80
2023-02-25T11:48:28.477Z,19.47
2023-02-25T11:51:05.022Z,15.60
2023-02-25T11:53:49.875Z,20.90
2023-02-25T11:56:26.688Z,31.03
2023-02-25T11:59:12.932Z,17.10
2023-02-25T12:02:03.329Z,13.20
2023-02-25T12:05:03.839Z,17.50
2023-02-25T12:08:12.294Z,17.97
2023-02-25T12:11:07.581Z,25.20
2023-02-25T12:14:04.196Z,25.60
2023-02-25T12:17:07.066Z,23.93
2023-02-25T12:20:02.106Z,15.57
2023-02-25T12:23:07.723Z,17.17
2023-02-25T12:25:48.209Z,11.67
2023-02-25T12:28:45.617Z,9.13
2023-02-25T12:32:01.090Z,18.27
2023-02-25T12:34:55.364Z,9.10
2023-02-25T12:37:46.229Z,15.10
2023-02-25T12:40:58.763Z,11.37
2023-02-25T12:43:36.777Z,14.90
2023-02-25T12:46:41.497Z,14.83
2023-02-25T12:49:44.654Z,9.63
2023-02-25T12:52:35.504Z,14.60
2023-02-25T12:55:35.294Z,12.33
2023-02-25T12:58:44.254Z,13.97
2023-02-25T13:01:29.540Z,10.67
2023-02-25T13:04:26.808Z,12.40
2023-02-25T13:07:24.443Z,14.97
2023-02-25T13:10:08.172Z,13.47
2023-02-25T13:13:02.005Z,20.20
2023-02-25T13:15:42.048Z,17.57
2023-02-25T13:18:20.102Z,11.37
2023-02-25T13:21:06.762Z,16.80
2023-02-25T13:24:01.289Z,12.27
2023-02-25T13:26:45.296Z,12.73
2023-02-25T13:29:26.824Z,16.37
2023-02-25T13:32:06.004Z,14.60
2023-02-25T13:34:44.169Z,13.43
2023-02-25T13:37:32.022Z,17.63
2023-02-25T13:40:27.274Z,10.33
2023-02-25T13:43:03.697Z,9.20
2023-02-25T13:45:53.320Z,9.10
2023-02-25T13:48:39.092Z,8.47
2023-02-25T13:51:29.094Z,11.67
2023-02-25T13:54:22.298Z,10.63
2023-02-25T13:57:00.196Z,17.10
2023-02-25T13:59:44.981Z,11.03
2023-02-25T14:02:31.909Z,15.63
2023-02-25T14:05:24.393Z,14.60
2023-02-25T14:08:34.711Z,8.13
2023-02-25T14:11:16.869Z,11.90
2023-02-25T14:14:19.949Z,9.83
2023-02-25T14:17:09.669Z,12.23
2023-02-25T14:19:47.444Z,13.60
2023-02-25T14:22:36.264Z,13.50
2023-02-25T14:25:18.192Z,12.37
2023-02-25T14:27:52.359Z,16.50
2023-02-25T14:30:30.149Z,14.30
2023-02-25T14:33:10.944Z,19.27
2023-02-25T14:35:49.629Z,13.23
2023-02-25T14:38:27.589Z,18.63
2023-02-25T14:41:09.560Z,13.50
2023-02-25T14:43:38.931Z,14.90
2023-02-25T14:46:19.796Z,14.87
2023-02-25T14:48:55.883Z,9.50
2023-02-25T14:51:55.766Z,10.30
2023-02-25T14:55:09.215Z,20.50
2023-02-25T14:58:15.988Z,15.40
2023-02-25T15:01:07.495Z,11.43
2023-02-25T15:03:56.921Z,8.23
2023-02-25T15:06:39.827Z,11.87
2023-02-25T15:09:33.401Z,12.40
2023-02-25T15:12:32.384Z,14.70
2023-02-25T15:15:20.774Z,10.63
2023-02-25T15:18:23.339Z,11.40
2023-02-25T15:20:52.095Z,15.70
2023-02-25T15:23:21.776Z,13.57
2023-02-25T15:25:53.880Z,9.10
2023-02-25T15:28:39.168Z,10.30
2023-02-25T15:31:12.542Z,17.13
2023-02-25T15:33:42.274Z,14.13
2023-02-25T15:36:29.405Z,9.63
2023-02-25T15:38:58.153Z,17.83
2023-02-25T15:41:46.858Z,9.37
2023-02-25T15:44:44.834Z,12.57
2023-02-25T15:47:27.046Z,13.40
2023-02-25T15:49:58.270Z,13.63
2023-02-25T15:52:58.414Z,15.63
2023-02-25T15:55:39.988Z,14.83
2023-02-25T15:58:43.658Z,9.40
2023-02-25T16:01:30.912Z,16.70
2023-02-25T16:03:59.470Z,18.53
2023-02-25T16:06:33.803Z,25.00
2023-02-25T16:09:07.766Z,15.87
2023-02-25T16:11:39.686Z,11.07
2023-02-25T16:14:13.569Z,14.97
2023-02-25T16:16:50.546Z,12.00
2023-02-25T16:19:22.899Z,14.90
2023-02-25T16:21:55.352Z,16.27
2023-02-25T16:24:24.537Z,14.60
2023-02-25T16:26:59.572Z,18.23
2023-02-25T16:29:50.688Z,10.90
2023-02-25T16:32:30.685Z,14.03
2023-02-25T16:35:08.187Z,16.00
2023-02-25T16:37:48.678Z,15.73
2023-02-25T16:40:22.242Z,11.90
2023-02-25T16:42:50.598Z,10.30
2023-02-25T16:45:26.833Z,15.33
2023-02-25T16:48:00.073Z,14.87
2023-02-25T16:50:31.632Z,11.87
2023-02-25T16:53:01.614Z,10.47
2023-02-25T16:55:36.546Z,10.10
2023-02-25T16:58:08.633Z,10.07
2023-02-25T17:00:37.311Z,11.27
2023-02-25T17:03:12.199Z,12.93
2023-02-25T17:05:40.911Z,12.93
2023-02-25T17:08:18.097Z,14.90
2023-02-25T17:10:49.451Z,16.97
2023-02-25T17:13:25.732Z,8.57
2023-02-25T17:15:54.881Z,19.00
2023-02-25T17:18:30.155Z,21.50
2023-02-25T17:21:04.239Z,21.03
2023-02-25T17:23:38.322Z,20.77
2023-02-25T17:26:09.815Z,17.13
2023-02-25T17:28:38.296Z,11.70
2023-02-25T17:31:10.144Z,16.83
2023-02-25T17:33:48.373Z,17.60
2023-02-25T17:36:19.550Z,14.47
2023-02-25T17:38:51.601Z,14.67
2023-02-25T17:41:21.086Z,12.83
2023-02-25T17:43:49.591Z,12.63
2023-02-25T17:46:27.700Z,17.03
2023-02-25T17:49:00.038Z,13.37
2023-02-25T17:51:33.353Z,9.47
2023-02-25T17:54:07.567Z,15.80
2023-02-25T17:56:37.310Z,9.83
2023-02-25T17:59:07.413Z,15.83
2023-02-25T18:01:48.174Z,12.00
2023-02-25T18:04:26.976Z,15.00
2023-02-25T18:06:56.503Z,11.83
2023-02-25T18:09:38.782Z,15.80
2023-02-25T18:12:10.072Z,10.40
2023-02-25T18:14:40.093Z,14.00
2023-02-25T18:17:28.288Z,13.10
2023-02-25T18:20:00.217Z,15.03
2023-02-25T18:22:35.902Z,16.60
2023-02-25T18:25:09.337Z,15.23
2023-02-25T18:27:38.054Z,13.43
2023-02-25T18:30:19.494Z,10.83
2023-02-25T18:32:48.564Z,7.57
2023-02-25T18:35:19.132Z,8.67
2023-02-25T18:37:49.831Z,19.73
2023-02-25T18:40:23.254Z,9.83
2023-02-25T18:42:51.667Z,11.33
2023-02-25T18:45:22.973Z,16.50
2023-02-25T18:47:51.977Z,11.73
2023-02-25T18:50:22.802Z,20.70
2023-02-25T18:52:51.205Z,14.97
2023-02-25T18:55:22.390Z,12.30
2023-02-25T18:57:50.825Z,14.30
2023-02-25T19:00:22.265Z,15.40
2023-02-25T19:02:53.189Z,11.03
2023-02-25T19:05:25.147Z,9.80
2023-02-25T19:07:53.990Z,17.40
2023-02-25T19:10:24.928Z,11.20
2023-02-25T19:12:59.976Z,13.90
2023-02-25T19:15:28.848Z,12.50
2023-02-25T19:17:57.923Z,16.93
2023-02-25T19:20:28.596Z,10.83
2023-02-25T19:22:57.475Z,20.73
2023-02-25T19:25:28.605Z,13.50
2023-02-25T19:27:58.396Z,11.37
2023-02-25T19:30:29.591Z,11.53
2023-02-25T19:33:02.889Z,10.00
2023-02-25T19:35:35.830Z,13.13
2023-02-25T19:38:04.857Z,12.30
2023-02-25T19:40:34.120Z,10.97
2023-02-25T19:43:03.074Z,13.00
2023-02-25T19:45:32.551Z,9.27
2023-02-25T19:48:01.569Z,11.20
2023-02-25T19:50:32.267Z,11.63
2023-02-25T19:53:03.805Z,19.20
2023-02-25T19:55:33.462Z,24.93
2023-02-25T19:58:02.276Z,9.70
2023-02-25T20:00:31.168Z,16.73
2023-02-25T20:03:00.158Z,10.67
2023-02-25T20:05:29.028Z,9.80
2023-02-25T20:07:57.982Z,15.53
2023-02-25T20:10:28.217Z,10.40
2023-02-25T20:12:56.894Z,17.33
2023-02-25T20:15:25.942Z,13.13
2023-02-25T20:17:55.836Z,15.30
2023-02-25T20:20:24.866Z,12.50
2023-02-25T20:22:54.260Z,13.33
2023-02-25T20:25:23.037Z,16.67
2023-02-25T20:27:52.873Z,12.77
2023-02-25T20:30:23.116Z,11.33
2023-02-25T20:32:52.141Z,19.73
2023-02-25T20:35:23.153Z,10.80
2023-02-25T20:38:08.455Z,9.27
2023-02-25T20:40:37.455Z,13.40
2023-02-25T20:43:07.455Z,12.47
2023-02-25T20:45:36.376Z,16.23
2023-02-25T20:48:05.025Z,12.70
2023-02-25T20:50:33.969Z,12.50
2023-02-25T20:53:02.400Z,11.43
2023-02-25T20:55:30.793Z,14.03
2023-02-25T20:57:59.040Z,10.43
2023-02-25T21:00:28.799Z,16.50
2023-02-25T21:02:57.085Z,8.73
2023-02-25T21:05:25.317Z,13.60
2023-02-25T21:07:53.537Z,12.60
2023-02-25T21:10:21.782Z,14.10
2023-02-25T21:12:50.104Z,17.13
2023-02-25T21:15:18.625Z,9.43
2023-02-25T21:17:48.240Z,8.93
2023-02-25T21:20:16.527Z,11.70
2023-02-25T21:22:44.776Z,11.10
2023-02-25T21:25:13.064Z,11.10
2023-02-25T21:27:41.230Z,10.23
2023-02-25T21:30:10.736Z,20.97
2023-02-25T21:32:39.011Z,15.60
2023-02-25T21:35:10.696Z,20.97
2023-02-25T21:37:39.133Z,16.50
2023-02-25T21:40:08.499Z,10.53
2023-02-25T21:42:36.730Z,13.50
2023-02-25T21:45:06.245Z,9.13
2023-02-25T21:47:34.528Z,17.07
2023-02-25T21:50:03.234Z,11.70
2023-02-25T21:52:33.036Z,13.00
2023-02-25T21:55:01.416Z,10.00
2023-02-25T21:57:29.916Z,15.73
2023-02-25T22:00:00.111Z,16.80
2023-02-25T22:02:32.922Z,8.50
2023-02-25T22:05:02.839Z,8.23
2023-02-25T22:07:32.651Z,10.07
2023-02-25T22:10:01.105Z,12.70
2023-02-25T22:12:29.515Z,12.60
2023-02-25T22:14:57.773Z,10.10
2023-02-25T22:17:26.092Z,10.07
2023-02-25T22:19:54.353Z,12.47
2023-02-25T22:22:22.880Z,13.60
2023-02-25T22:24:52.541Z,12.03
2023-02-25T22:27:21.095Z,10.87
2023-02-25T22:29:49.552Z,17.03
2023-02-25T22:32:18.309Z,10.90
2023-02-25T22:34:46.958Z,13.67
2023-02-25T22:37:15.339Z,12.47
2023-02-25T22:39:43.591Z,13.67
2023-02-25T22:42:13.320Z,10.80
2023-02-25T22:44:41.545Z,11.33
2023-02-25T22:47:09.841Z,12.23
2023-02-25T22:49:38.126Z,8.70
2023-02-25T22:52:06.501Z,12.20
2023-02-25T22:54:34.736Z,10.83
2023-02-25T22:57:03.095Z,12.67
2023-02-25T22:59:32.702Z,13.07
2023-02-25T23:02:01.062Z,11.90
2023-02-25T23:04:29.419Z,7.20
2023-02-25T23:06:57.743Z,10.27
2023-02-25T23:09:26.107Z,11.20
2023-02-25T23:11:54.589Z,11.67
2023-02-25T23:14:22.867Z,11.03
2023-02-25T23:16:52.665Z,19.63
2023-02-25T23:19:21.404Z,15.13
2023-02-25T23:21:49.819Z,8.97
2023-02-25T23:24:19.546Z,13.20
2023-02-25T23:26:50.563Z,10.47
2023-02-25T23:29:18.978Z,12.20
2023-02-25T23:31:50.034Z,16.43
2023-02-25T23:34:22.974Z,12.87
2023-02-25T23:36:51.466Z,10.27
2023-02-25T23:39:19.772Z,9.53
2023-02-25T23:44:17.289Z,8.00
2023-02-25T23:46:46.030Z,12.30
2023-02-25T23:49:16.354Z,15.30
2023-02-25T23:51:48.293Z,14.20
2023-02-25T23:54:19.041Z,10.37
2023-02-25T23:56:47.647Z,15.20
2023-02-25T23:59:15.995Z,11.70
